sensor_id;sensor_type;location;lat;lon;timestamp;temperature;humidity
65836;SHT30;52595;51.608;7.216;2024-02-14T00:00:12;8.33;92.42
65836;SHT30;52595;51.608;7.216;2024-02-14T00:02:48;8.26;92.74
65836;SHT30;52595;51.608;7.216;2024-02-14T00:05:14;8.28;92.53
65836;SHT30;52595;51.608;7.216;2024-02-14T00:07:40;8.26;92.87
65836;SHT30;52595;51.608;7.216;2024-02-14T00:10:06;8.10;94.19
65836;SHT30;52595;51.608;7.216;2024-02-14T00:12:32;7.96;95.32
65836;SHT30;52595;51.608;7.216;2024-02-14T00:15:01;7.73;97.08
65836;SHT30;52595;51.608;7.216;2024-02-14T00:17:31;7.59;97.85
65836;SHT30;52595;51.608;7.216;2024-02-14T00:19:56;7.55;99.18
65836;SHT30;52595;51.608;7.216;2024-02-14T00:22:21;7.46;99.49
65836;SHT30;52595;51.608;7.216;2024-02-14T00:24:53;7.46;99.63
65836;SHT30;52595;51.608;7.216;2024-02-14T00:27:18;7.41;99.99
65836;SHT30;52595;51.608;7.216;2024-02-14T00:29:44;7.39;99.99
65836;SHT30;52595;51.608;7.216;2024-02-14T00:32:12;7.41;99.76
65836;SHT30;52595;51.608;7.216;2024-02-14T00:34:38;7.41;99.99
65836;SHT30;52595;51.608;7.216;2024-02-14T00:37:03;7.48;99.52
65836;SHT30;52595;51.608;7.216;2024-02-14T00:39:29;7.53;98.54
65836;SHT30;52595;51.608;7.216;2024-02-14T00:41:54;7.59;98.20
65836;SHT30;52595;51.608;7.216;2024-02-14T00:44:21;7.58;98.52
65836;SHT30;52595;51.608;7.216;2024-02-14T00:46:46;7.66;97.82
65836;SHT30;52595;51.608;7.216;2024-02-14T00:49:13;7.60;98.35
65836;SHT30;52595;51.608;7.216;2024-02-14T00:51:39;7.58;98.83
65836;SHT30;52595;51.608;7.216;2024-02-14T00:54:05;7.52;99.31
65836;SHT30;52595;51.608;7.216;2024-02-14T00:56:30;7.51;99.62
65836;SHT30;52595;51.608;7.216;2024-02-14T00:58:56;7.46;99.80
65836;SHT30;52595;51.608;7.216;2024-02-14T01:01:22;7.41;99.99
65836;SHT30;52595;51.608;7.216;2024-02-14T01:03:47;7.38;99.99
65836;SHT30;52595;51.608;7.216;2024-02-14T01:06:12;7.41;99.99
65836;SHT30;52595;51.608;7.216;2024-02-14T01:08:39;7.35;99.99
65836;SHT30;52595;51.608;7.216;2024-02-14T01:11:06;7.35;99.99
65836;SHT30;52595;51.608;7.216;2024-02-14T01:13:31;7.33;99.99
65836;SHT30;52595;51.608;7.216;2024-02-14T01:15:56;7.35;99.99
65836;SHT30;52595;51.608;7.216;2024-02-14T01:18:22;7.39;99.99
65836;SHT30;52595;51.608;7.216;2024-02-14T01:20:47;7.43;99.94
65836;SHT30;52595;51.608;7.216;2024-02-14T01:23:12;7.42;99.99
65836;SHT30;52595;51.608;7.216;2024-02-14T01:25:38;7.41;99.99
65836;SHT30;52595;51.608;7.216;2024-02-14T01:28:03;7.41;99.99
65836;SHT30;52595;51.608;7.216;2024-02-14T01:30:30;7.43;99.99
65836;SHT30;52595;51.608;7.216;2024-02-14T01:32:55;7.42;99.99
65836;SHT30;52595;51.608;7.216;2024-02-14T01:35:21;7.45;99.99
65836;SHT30;52595;51.608;7.216;2024-02-14T01:37:46;7.42;99.99
65836;SHT30;52595;51.608;7.216;2024-02-14T01:40:12;7.41;99.99
65836;SHT30;52595;51.608;7.216;2024-02-14T01:42:37;7.41;99.99
65836;SHT30;52595;51.608;7.216;2024-02-14T01:45:03;7.45;99.99
65836;SHT30;52595;51.608;7.216;2024-02-14T01:47:29;7.45;99.99
65836;SHT30;52595;51.608;7.216;2024-02-14T01:49:58;7.46;99.99
65836;SHT30;52595;51.608;7.216;2024-02-14T01:52:24;7.49;99.99
65836;SHT30;52595;51.608;7.216;2024-02-14T01:54:49;7.52;99.92
65836;SHT30;52595;51.608;7.216;2024-02-14T01:57:15;7.56;99.71
65836;SHT30;52595;51.608;7.216;2024-02-14T01:59:40;7.58;99.63
65836;SHT30;52595;51.608;7.216;2024-02-14T02:02:05;7.63;99.51
65836;SHT30;52595;51.608;7.216;2024-02-14T02:04:34;7.65;99.20
65836;SHT30;52595;51.608;7.216;2024-02-14T02:07:00;7.66;99.07
65836;SHT30;52595;51.608;7.216;2024-02-14T02:09:26;7.70;98.87
65836;SHT30;52595;51.608;7.216;2024-02-14T02:11:52;7.67;99.06
65836;SHT30;52595;51.608;7.216;2024-02-14T02:14:25;7.69;98.82
65836;SHT30;52595;51.608;7.216;2024-02-14T02:16:51;7.73;98.65
65836;SHT30;52595;51.608;7.216;2024-02-14T02:19:17;7.74;98.90
65836;SHT30;52595;51.608;7.216;2024-02-14T02:21:42;7.80;98.57
65836;SHT30;52595;51.608;7.216;2024-02-14T02:24:11;7.82;98.49
65836;SHT30;52595;51.608;7.216;2024-02-14T02:26:36;7.83;98.30
65836;SHT30;52595;51.608;7.216;2024-02-14T02:29:02;7.86;98.25
65836;SHT30;52595;51.608;7.216;2024-02-14T02:31:27;7.93;98.02
65836;SHT30;52595;51.608;7.216;2024-02-14T02:33:53;7.94;98.15
65836;SHT30;52595;51.608;7.216;2024-02-14T02:36:18;7.94;98.03
65836;SHT30;52595;51.608;7.216;2024-02-14T02:38:43;7.97;97.82
65836;SHT30;52595;51.608;7.216;2024-02-14T02:41:09;8.01;97.88
65836;SHT30;52595;51.608;7.216;2024-02-14T02:43:34;8.04;97.84
65836;SHT30;52595;51.608;7.216;2024-02-14T02:46:00;8.06;97.98
65836;SHT30;52595;51.608;7.216;2024-02-14T02:48:26;8.08;97.94
65836;SHT30;52595;51.608;7.216;2024-02-14T02:50:52;8.10;97.98
65836;SHT30;52595;51.608;7.216;2024-02-14T02:53:18;8.13;97.66
65836;SHT30;52595;51.608;7.216;2024-02-14T02:55:44;8.18;97.55
65836;SHT30;52595;51.608;7.216;2024-02-14T02:58:10;8.26;97.61
65836;SHT30;52595;51.608;7.216;2024-02-14T03:00:35;8.31;97.22
65836;SHT30;52595;51.608;7.216;2024-02-14T03:03:01;8.38;97.05
65836;SHT30;52595;51.608;7.216;2024-02-14T03:05:29;8.42;96.85
65836;SHT30;52595;51.608;7.216;2024-02-14T03:07:58;8.47;96.59
65836;SHT30;52595;51.608;7.216;2024-02-14T03:10:24;8.42;96.91
65836;SHT30;52595;51.608;7.216;2024-02-14T03:12:50;8.44;96.76
65836;SHT30;52595;51.608;7.216;2024-02-14T03:15:16;8.58;96.23
65836;SHT30;52595;51.608;7.216;2024-02-14T03:17:42;8.61;96.27
65836;SHT30;52595;51.608;7.216;2024-02-14T03:20:08;8.57;96.57
65836;SHT30;52595;51.608;7.216;2024-02-14T03:22:44;8.54;96.88
65836;SHT30;52595;51.608;7.216;2024-02-14T03:25:16;8.64;96.60
65836;SHT30;52595;51.608;7.216;2024-02-14T03:27:42;8.67;96.36
65836;SHT30;52595;51.608;7.216;2024-02-14T03:30:11;8.65;96.52
65836;SHT30;52595;51.608;7.216;2024-02-14T03:32:38;8.75;96.14
65836;SHT30;52595;51.608;7.216;2024-02-14T03:35:04;8.79;96.06
65836;SHT30;52595;51.608;7.216;2024-02-14T03:37:29;8.86;95.96
65836;SHT30;52595;51.608;7.216;2024-02-14T03:39:54;8.76;96.45
65836;SHT30;52595;51.608;7.216;2024-02-14T03:42:20;8.72;97.31
65836;SHT30;52595;51.608;7.216;2024-02-14T03:44:45;8.54;98.53
65836;SHT30;52595;51.608;7.216;2024-02-14T03:47:12;8.42;99.32
65836;SHT30;52595;51.608;7.216;2024-02-14T03:49:39;8.31;99.99
65836;SHT30;52595;51.608;7.216;2024-02-14T03:52:06;8.26;99.99
65836;SHT30;52595;51.608;7.216;2024-02-14T03:54:38;8.11;99.99
65836;SHT30;52595;51.608;7.216;2024-02-14T03:57:04;8.06;99.99
65836;SHT30;52595;51.608;7.216;2024-02-14T03:59:32;8.00;99.99
65836;SHT30;52595;51.608;7.216;2024-02-14T04:02:00;8.00;99.99
65836;SHT30;52595;51.608;7.216;2024-02-14T04:04:25;7.97;99.99
65836;SHT30;52595;51.608;7.216;2024-02-14T04:06:51;7.93;99.99
65836;SHT30;52595;51.608;7.216;2024-02-14T04:09:17;7.97;99.99
65836;SHT30;52595;51.608;7.216;2024-02-14T04:11:42;7.96;99.99
65836;SHT30;52595;51.608;7.216;2024-02-14T04:14:08;7.94;99.99
65836;SHT30;52595;51.608;7.216;2024-02-14T04:16:33;7.96;99.99
65836;SHT30;52595;51.608;7.216;2024-02-14T04:18:59;8.00;99.99
65836;SHT30;52595;51.608;7.216;2024-02-14T04:21:24;8.00;99.99
65836;SHT30;52595;51.608;7.216;2024-02-14T04:23:50;8.14;99.99
65836;SHT30;52595;51.608;7.216;2024-02-14T04:26:21;8.18;99.99
65836;SHT30;52595;51.608;7.216;2024-02-14T04:28:47;8.34;99.99
65836;SHT30;52595;51.608;7.216;2024-02-14T04:31:12;8.42;99.99
65836;SHT30;52595;51.608;7.216;2024-02-14T04:33:37;8.41;99.99
65836;SHT30;52595;51.608;7.216;2024-02-14T04:36:03;8.41;99.99
65836;SHT30;52595;51.608;7.216;2024-02-14T04:38:30;8.38;99.99
65836;SHT30;52595;51.608;7.216;2024-02-14T04:40:56;8.48;99.99
65836;SHT30;52595;51.608;7.216;2024-02-14T04:43:22;8.51;99.99
65836;SHT30;52595;51.608;7.216;2024-02-14T04:45:47;8.55;99.99
65836;SHT30;52595;51.608;7.216;2024-02-14T04:48:13;8.57;99.99
65836;SHT30;52595;51.608;7.216;2024-02-14T04:50:39;8.55;99.99
65836;SHT30;52595;51.608;7.216;2024-02-14T04:53:04;8.58;99.99
65836;SHT30;52595;51.608;7.216;2024-02-14T04:55:29;8.68;99.99
65836;SHT30;52595;51.608;7.216;2024-02-14T04:57:55;8.75;99.99
65836;SHT30;52595;51.608;7.216;2024-02-14T05:00:20;8.79;99.99
65836;SHT30;52595;51.608;7.216;2024-02-14T05:02:46;8.82;99.99
65836;SHT30;52595;51.608;7.216;2024-02-14T05:05:11;8.88;99.99
65836;SHT30;52595;51.608;7.216;2024-02-14T05:07:36;8.93;99.95
65836;SHT30;52595;51.608;7.216;2024-02-14T05:10:02;8.96;99.81
65836;SHT30;52595;51.608;7.216;2024-02-14T05:12:28;8.93;99.99
65836;SHT30;52595;51.608;7.216;2024-02-14T05:14:53;8.91;99.99
65836;SHT30;52595;51.608;7.216;2024-02-14T05:17:19;8.89;99.99
65836;SHT30;52595;51.608;7.216;2024-02-14T05:19:44;8.91;99.99
65836;SHT30;52595;51.608;7.216;2024-02-14T05:22:09;8.89;99.99
65836;SHT30;52595;51.608;7.216;2024-02-14T05:24:35;8.93;99.99
65836;SHT30;52595;51.608;7.216;2024-02-14T05:27:04;8.99;99.99
65836;SHT30;52595;51.608;7.216;2024-02-14T05:29:30;9.05;99.99
65836;SHT30;52595;51.608;7.216;2024-02-14T05:31:56;9.19;99.99
65836;SHT30;52595;51.608;7.216;2024-02-14T05:34:22;9.24;99.80
65836;SHT30;52595;51.608;7.216;2024-02-14T05:36:48;9.22;99.99
65836;SHT30;52595;51.608;7.216;2024-02-14T05:39:13;9.19;99.99
65836;SHT30;52595;51.608;7.216;2024-02-14T05:41:42;9.18;99.99
65836;SHT30;52595;51.608;7.216;2024-02-14T05:44:08;9.12;99.99
65836;SHT30;52595;51.608;7.216;2024-02-14T05:46:33;8.99;99.99
65836;SHT30;52595;51.608;7.216;2024-02-14T05:48:59;9.02;99.99
65836;SHT30;52595;51.608;7.216;2024-02-14T05:51:24;8.93;99.99
65836;SHT30;52595;51.608;7.216;2024-02-14T05:53:50;8.93;99.99
65836;SHT30;52595;51.608;7.216;2024-02-14T05:56:15;8.95;99.99
65836;SHT30;52595;51.608;7.216;2024-02-14T05:58:41;8.93;99.99
65836;SHT30;52595;51.608;7.216;2024-02-14T06:01:06;8.92;99.99
65836;SHT30;52595;51.608;7.216;2024-02-14T06:03:31;8.88;99.99
65836;SHT30;52595;51.608;7.216;2024-02-14T06:05:57;8.89;99.99
65836;SHT30;52595;51.608;7.216;2024-02-14T06:08:22;8.86;99.99
65836;SHT30;52595;51.608;7.216;2024-02-14T06:10:49;8.85;99.99
65836;SHT30;52595;51.608;7.216;2024-02-14T06:13:14;8.88;99.99
65836;SHT30;52595;51.608;7.216;2024-02-14T06:15:40;8.86;99.99
65836;SHT30;52595;51.608;7.216;2024-02-14T06:18:05;8.81;99.99
65836;SHT30;52595;51.608;7.216;2024-02-14T06:20:31;8.82;99.99
65836;SHT30;52595;51.608;7.216;2024-02-14T06:22:57;8.81;99.99
65836;SHT30;52595;51.608;7.216;2024-02-14T06:25:22;8.81;99.99
65836;SHT30;52595;51.608;7.216;2024-02-14T06:27:48;8.81;99.99
65836;SHT30;52595;51.608;7.216;2024-02-14T06:30:13;8.81;99.99
65836;SHT30;52595;51.608;7.216;2024-02-14T06:32:39;8.76;99.99
65836;SHT30;52595;51.608;7.216;2024-02-14T06:35:05;8.81;99.99
65836;SHT30;52595;51.608;7.216;2024-02-14T06:37:30;8.85;99.99
65836;SHT30;52595;51.608;7.216;2024-02-14T06:39:55;8.88;99.99
65836;SHT30;52595;51.608;7.216;2024-02-14T06:42:21;8.95;99.99
65836;SHT30;52595;51.608;7.216;2024-02-14T06:44:46;8.91;99.99
65836;SHT30;52595;51.608;7.216;2024-02-14T06:47:12;8.96;99.99
65836;SHT30;52595;51.608;7.216;2024-02-14T06:49:38;8.95;99.99
65836;SHT30;52595;51.608;7.216;2024-02-14T06:52:03;8.89;99.99
65836;SHT30;52595;51.608;7.216;2024-02-14T06:54:29;8.96;99.99
65836;SHT30;52595;51.608;7.216;2024-02-14T06:56:54;8.96;99.99
65836;SHT30;52595;51.608;7.216;2024-02-14T06:59:20;8.93;99.99
65836;SHT30;52595;51.608;7.216;2024-02-14T07:01:45;8.96;99.99
65836;SHT30;52595;51.608;7.216;2024-02-14T07:04:11;8.99;99.99
65836;SHT30;52595;51.608;7.216;2024-02-14T07:06:36;8.95;99.99
65836;SHT30;52595;51.608;7.216;2024-02-14T07:09:02;8.96;99.99
65836;SHT30;52595;51.608;7.216;2024-02-14T07:11:27;8.96;99.99
65836;SHT30;52595;51.608;7.216;2024-02-14T07:13:52;8.95;99.99
65836;SHT30;52595;51.608;7.216;2024-02-14T07:16:18;8.98;99.99
65836;SHT30;52595;51.608;7.216;2024-02-14T07:18:43;8.98;99.99
65836;SHT30;52595;51.608;7.216;2024-02-14T07:21:08;9.01;99.99
65836;SHT30;52595;51.608;7.216;2024-02-14T07:23:34;9.01;99.99
65836;SHT30;52595;51.608;7.216;2024-02-14T07:26:00;9.01;99.99
65836;SHT30;52595;51.608;7.216;2024-02-14T07:28:26;8.96;99.99
65836;SHT30;52595;51.608;7.216;2024-02-14T07:30:52;8.98;99.99
65836;SHT30;52595;51.608;7.216;2024-02-14T07:33:17;8.98;99.99
65836;SHT30;52595;51.608;7.216;2024-02-14T07:35:42;9.02;99.99
65836;SHT30;52595;51.608;7.216;2024-02-14T07:38:08;8.99;99.99
65836;SHT30;52595;51.608;7.216;2024-02-14T07:40:33;9.01;99.99
65836;SHT30;52595;51.608;7.216;2024-02-14T07:42:59;9.05;99.99
65836;SHT30;52595;51.608;7.216;2024-02-14T07:45:25;9.06;99.99
65836;SHT30;52595;51.608;7.216;2024-02-14T07:47:50;9.05;99.99
65836;SHT30;52595;51.608;7.216;2024-02-14T07:50:16;9.05;99.99
65836;SHT30;52595;51.608;7.216;2024-02-14T07:52:42;9.12;99.99
65836;SHT30;52595;51.608;7.216;2024-02-14T07:55:09;9.15;99.99
65836;SHT30;52595;51.608;7.216;2024-02-14T07:57:37;9.15;99.99
65836;SHT30;52595;51.608;7.216;2024-02-14T08:00:03;9.15;99.99
65836;SHT30;52595;51.608;7.216;2024-02-14T08:02:28;9.15;99.99
65836;SHT30;52595;51.608;7.216;2024-02-14T08:04:54;9.18;99.99
65836;SHT30;52595;51.608;7.216;2024-02-14T08:07:19;9.19;99.99
65836;SHT30;52595;51.608;7.216;2024-02-14T08:09:45;9.20;99.99
65836;SHT30;52595;51.608;7.216;2024-02-14T08:12:10;9.16;99.99
65836;SHT30;52595;51.608;7.216;2024-02-14T08:14:35;9.20;99.99
65836;SHT30;52595;51.608;7.216;2024-02-14T08:17:01;9.18;99.99
65836;SHT30;52595;51.608;7.216;2024-02-14T08:19:27;9.24;99.99
65836;SHT30;52595;51.608;7.216;2024-02-14T08:21:52;9.26;99.99
65836;SHT30;52595;51.608;7.216;2024-02-14T08:24:24;9.30;99.99
65836;SHT30;52595;51.608;7.216;2024-02-14T08:26:50;9.27;99.99
65836;SHT30;52595;51.608;7.216;2024-02-14T08:29:15;9.34;99.99
65836;SHT30;52595;51.608;7.216;2024-02-14T08:31:40;9.34;99.99
65836;SHT30;52595;51.608;7.216;2024-02-14T08:34:06;9.34;99.99
65836;SHT30;52595;51.608;7.216;2024-02-14T08:36:31;9.37;99.99
65836;SHT30;52595;51.608;7.216;2024-02-14T08:38:56;9.39;99.99
65836;SHT30;52595;51.608;7.216;2024-02-14T08:41:22;9.42;99.99
65836;SHT30;52595;51.608;7.216;2024-02-14T08:43:48;9.39;99.99
65836;SHT30;52595;51.608;7.216;2024-02-14T08:46:16;9.47;99.99
65836;SHT30;52595;51.608;7.216;2024-02-14T08:48:42;9.56;99.99
65836;SHT30;52595;51.608;7.216;2024-02-14T08:51:14;9.58;99.99
65836;SHT30;52595;51.608;7.216;2024-02-14T08:53:39;9.61;99.99
65836;SHT30;52595;51.608;7.216;2024-02-14T08:56:07;9.63;99.99
65836;SHT30;52595;51.608;7.216;2024-02-14T08:58:33;9.70;99.99
65836;SHT30;52595;51.608;7.216;2024-02-14T09:01:00;9.71;99.99
65836;SHT30;52595;51.608;7.216;2024-02-14T09:03:25;9.76;99.99
65836;SHT30;52595;51.608;7.216;2024-02-14T09:05:51;9.78;99.99
65836;SHT30;52595;51.608;7.216;2024-02-14T09:08:18;9.83;99.99
65836;SHT30;52595;51.608;7.216;2024-02-14T09:10:43;9.80;99.99
65836;SHT30;52595;51.608;7.216;2024-02-14T09:13:11;9.84;99.99
65836;SHT30;52595;51.608;7.216;2024-02-14T09:15:36;9.93;99.99
65836;SHT30;52595;51.608;7.216;2024-02-14T09:18:02;9.93;99.99
65836;SHT30;52595;51.608;7.216;2024-02-14T09:20:28;9.93;99.99
65836;SHT30;52595;51.608;7.216;2024-02-14T09:22:55;9.94;99.99
65836;SHT30;52595;51.608;7.216;2024-02-14T09:25:21;9.97;99.99
65836;SHT30;52595;51.608;7.216;2024-02-14T09:27:49;10.02;99.99
65836;SHT30;52595;51.608;7.216;2024-02-14T09:30:14;10.02;99.99
65836;SHT30;52595;51.608;7.216;2024-02-14T09:32:42;10.04;99.99
65836;SHT30;52595;51.608;7.216;2024-02-14T09:35:08;9.97;99.99
65836;SHT30;52595;51.608;7.216;2024-02-14T09:37:33;9.93;99.99
65836;SHT30;52595;51.608;7.216;2024-02-14T09:39:59;9.93;99.99
65836;SHT30;52595;51.608;7.216;2024-02-14T09:42:41;9.98;99.99
65836;SHT30;52595;51.608;7.216;2024-02-14T09:45:08;9.98;99.99
65836;SHT30;52595;51.608;7.216;2024-02-14T09:47:35;9.90;99.99
65836;SHT30;52595;51.608;7.216;2024-02-14T09:50:05;9.86;99.99
65836;SHT30;52595;51.608;7.216;2024-02-14T09:52:32;9.83;99.99
65836;SHT30;52595;51.608;7.216;2024-02-14T09:54:58;9.81;99.99
65836;SHT30;52595;51.608;7.216;2024-02-14T09:57:24;9.81;99.99
65836;SHT30;52595;51.608;7.216;2024-02-14T09:59:51;9.76;99.99
65836;SHT30;52595;51.608;7.216;2024-02-14T10:02:19;9.78;99.99
65836;SHT30;52595;51.608;7.216;2024-02-14T10:04:44;9.80;99.99
65836;SHT30;52595;51.608;7.216;2024-02-14T10:07:10;9.78;99.99
65836;SHT30;52595;51.608;7.216;2024-02-14T10:09:42;9.78;99.99
65836;SHT30;52595;51.608;7.216;2024-02-14T10:12:08;9.78;99.99
65836;SHT30;52595;51.608;7.216;2024-02-14T10:14:36;9.81;99.99
65836;SHT30;52595;51.608;7.216;2024-02-14T10:17:06;9.86;99.99
65836;SHT30;52595;51.608;7.216;2024-02-14T10:19:33;9.84;99.99
65836;SHT30;52595;51.608;7.216;2024-02-14T10:21:59;9.90;99.99
65836;SHT30;52595;51.608;7.216;2024-02-14T10:24:28;9.86;99.99
65836;SHT30;52595;51.608;7.216;2024-02-14T10:26:54;9.90;99.99
65836;SHT30;52595;51.608;7.216;2024-02-14T10:29:23;9.94;99.99
65836;SHT30;52595;51.608;7.216;2024-02-14T10:31:49;9.93;99.99
65836;SHT30;52595;51.608;7.216;2024-02-14T10:34:16;9.94;99.99
65836;SHT30;52595;51.608;7.216;2024-02-14T10:36:44;9.94;99.99
65836;SHT30;52595;51.608;7.216;2024-02-14T10:39:11;9.98;99.99
65836;SHT30;52595;51.608;7.216;2024-02-14T10:41:37;9.94;99.99
65836;SHT30;52595;51.608;7.216;2024-02-14T10:44:05;9.91;99.99
65836;SHT30;52595;51.608;7.216;2024-02-14T10:46:36;9.94;99.99
65836;SHT30;52595;51.608;7.216;2024-02-14T10:49:04;9.98;99.99
65836;SHT30;52595;51.608;7.216;2024-02-14T10:51:34;9.99;99.99
65836;SHT30;52595;51.608;7.216;2024-02-14T10:54:00;9.98;99.99
65836;SHT30;52595;51.608;7.216;2024-02-14T10:56:29;10.05;99.99
65836;SHT30;52595;51.608;7.216;2024-02-14T10:58:56;10.07;99.99
65836;SHT30;52595;51.608;7.216;2024-02-14T11:01:28;10.07;99.99
65836;SHT30;52595;51.608;7.216;2024-02-14T11:04:00;10.05;99.99
65836;SHT30;52595;51.608;7.216;2024-02-14T11:06:26;10.09;99.99
65836;SHT30;52595;51.608;7.216;2024-02-14T11:09:00;10.07;99.99
65836;SHT30;52595;51.608;7.216;2024-02-14T11:11:28;10.07;99.99
65836;SHT30;52595;51.608;7.216;2024-02-14T11:13:56;10.09;99.99
65836;SHT30;52595;51.608;7.216;2024-02-14T11:16:25;10.17;99.99
65836;SHT30;52595;51.608;7.216;2024-02-14T11:18:53;10.14;99.99
65836;SHT30;52595;51.608;7.216;2024-02-14T11:21:20;10.14;99.99
65836;SHT30;52595;51.608;7.216;2024-02-14T11:23:54;10.11;99.99
65836;SHT30;52595;51.608;7.216;2024-02-14T11:26:20;10.07;99.99
65836;SHT30;52595;51.608;7.216;2024-02-14T11:28:48;10.04;99.99
65836;SHT30;52595;51.608;7.216;2024-02-14T11:31:16;10.05;99.99
65836;SHT30;52595;51.608;7.216;2024-02-14T11:33:42;10.07;99.99
65836;SHT30;52595;51.608;7.216;2024-02-14T11:36:11;10.07;99.99
65836;SHT30;52595;51.608;7.216;2024-02-14T11:38:40;10.08;99.99
65836;SHT30;52595;51.608;7.216;2024-02-14T11:41:06;10.08;99.99
65836;SHT30;52595;51.608;7.216;2024-02-14T11:43:32;10.11;99.99
65836;SHT30;52595;51.608;7.216;2024-02-14T11:45:57;10.22;99.99
65836;SHT30;52595;51.608;7.216;2024-02-14T11:48:23;10.35;99.99
65836;SHT30;52595;51.608;7.216;2024-02-14T11:50:49;10.32;99.99
65836;SHT30;52595;51.608;7.216;2024-02-14T11:53:15;10.35;99.99
65836;SHT30;52595;51.608;7.216;2024-02-14T11:55:44;10.37;99.99
65836;SHT30;52595;51.608;7.216;2024-02-14T11:58:13;10.39;99.99
65836;SHT30;52595;51.608;7.216;2024-02-14T12:00:43;10.37;99.99
65836;SHT30;52595;51.608;7.216;2024-02-14T12:03:12;10.35;99.99
65836;SHT30;52595;51.608;7.216;2024-02-14T12:05:38;10.38;99.99
65836;SHT30;52595;51.608;7.216;2024-02-14T12:08:07;10.39;99.99
65836;SHT30;52595;51.608;7.216;2024-02-14T12:10:33;10.46;99.99
65836;SHT30;52595;51.608;7.216;2024-02-14T12:13:13;10.48;99.99
65836;SHT30;52595;51.608;7.216;2024-02-14T12:15:44;10.49;99.99
65836;SHT30;52595;51.608;7.216;2024-02-14T12:18:09;10.58;99.99
65836;SHT30;52595;51.608;7.216;2024-02-14T12:20:36;10.61;99.99
65836;SHT30;52595;51.608;7.216;2024-02-14T12:23:02;10.59;99.99
65836;SHT30;52595;51.608;7.216;2024-02-14T12:25:28;10.65;99.99
65836;SHT30;52595;51.608;7.216;2024-02-14T12:27:56;10.65;99.99
65836;SHT30;52595;51.608;7.216;2024-02-14T12:30:22;10.66;99.99
65836;SHT30;52595;51.608;7.216;2024-02-14T12:33:00;10.63;99.99
65836;SHT30;52595;51.608;7.216;2024-02-14T12:35:26;10.63;99.99
65836;SHT30;52595;51.608;7.216;2024-02-14T12:37:52;10.69;99.99
65836;SHT30;52595;51.608;7.216;2024-02-14T12:40:19;10.68;99.99
65836;SHT30;52595;51.608;7.216;2024-02-14T12:42:45;10.72;99.99
65836;SHT30;52595;51.608;7.216;2024-02-14T12:45:10;10.75;99.99
65836;SHT30;52595;51.608;7.216;2024-02-14T12:47:36;10.75;99.99
65836;SHT30;52595;51.608;7.216;2024-02-14T12:50:02;10.75;99.99
65836;SHT30;52595;51.608;7.216;2024-02-14T12:52:27;10.75;99.99
65836;SHT30;52595;51.608;7.216;2024-02-14T12:54:53;10.72;99.99
65836;SHT30;52595;51.608;7.216;2024-02-14T12:57:18;10.71;99.99
65836;SHT30;52595;51.608;7.216;2024-02-14T12:59:46;10.75;99.99
65836;SHT30;52595;51.608;7.216;2024-02-14T13:02:12;10.77;99.99
65836;SHT30;52595;51.608;7.216;2024-02-14T13:04:37;10.80;99.99
65836;SHT30;52595;51.608;7.216;2024-02-14T13:07:04;10.83;99.99
65836;SHT30;52595;51.608;7.216;2024-02-14T13:09:29;10.90;99.99
65836;SHT30;52595;51.608;7.216;2024-02-14T13:11:54;10.95;99.99
65836;SHT30;52595;51.608;7.216;2024-02-14T13:14:20;10.97;99.99
65836;SHT30;52595;51.608;7.216;2024-02-14T13:16:45;10.95;99.99
65836;SHT30;52595;51.608;7.216;2024-02-14T13:19:10;10.90;99.99
65836;SHT30;52595;51.608;7.216;2024-02-14T13:21:36;10.89;99.99
65836;SHT30;52595;51.608;7.216;2024-02-14T13:24:01;10.92;99.99
65836;SHT30;52595;51.608;7.216;2024-02-14T13:26:27;10.90;99.99
65836;SHT30;52595;51.608;7.216;2024-02-14T13:28:53;10.86;99.99
65836;SHT30;52595;51.608;7.216;2024-02-14T13:31:19;10.89;99.99
65836;SHT30;52595;51.608;7.216;2024-02-14T13:33:44;10.89;99.99
65836;SHT30;52595;51.608;7.216;2024-02-14T13:36:10;10.89;99.99
65836;SHT30;52595;51.608;7.216;2024-02-14T13:38:35;10.89;99.99
65836;SHT30;52595;51.608;7.216;2024-02-14T13:41:01;10.86;99.99
65836;SHT30;52595;51.608;7.216;2024-02-14T13:43:26;10.92;99.99
65836;SHT30;52595;51.608;7.216;2024-02-14T13:45:52;10.90;99.99
65836;SHT30;52595;51.608;7.216;2024-02-14T13:48:18;10.93;99.99
65836;SHT30;52595;51.608;7.216;2024-02-14T13:50:43;10.96;99.99
65836;SHT30;52595;51.608;7.216;2024-02-14T13:53:09;10.97;99.99
65836;SHT30;52595;51.608;7.216;2024-02-14T13:55:34;10.97;99.99
65836;SHT30;52595;51.608;7.216;2024-02-14T13:57:59;10.97;99.99
65836;SHT30;52595;51.608;7.216;2024-02-14T14:00:25;10.96;99.99
65836;SHT30;52595;51.608;7.216;2024-02-14T14:02:50;10.90;99.99
65836;SHT30;52595;51.608;7.216;2024-02-14T14:05:16;10.92;99.99
65836;SHT30;52595;51.608;7.216;2024-02-14T14:07:41;10.96;99.99
65836;SHT30;52595;51.608;7.216;2024-02-14T14:10:08;10.96;99.99
65836;SHT30;52595;51.608;7.216;2024-02-14T14:12:34;10.96;99.99
65836;SHT30;52595;51.608;7.216;2024-02-14T14:15:00;10.97;99.99
65836;SHT30;52595;51.608;7.216;2024-02-14T14:17:26;10.97;99.99
65836;SHT30;52595;51.608;7.216;2024-02-14T14:19:53;10.95;99.99
65836;SHT30;52595;51.608;7.216;2024-02-14T14:22:18;10.95;99.99
65836;SHT30;52595;51.608;7.216;2024-02-14T14:24:43;10.89;99.99
65836;SHT30;52595;51.608;7.216;2024-02-14T14:27:09;10.90;99.99
65836;SHT30;52595;51.608;7.216;2024-02-14T14:29:39;10.93;99.99
65836;SHT30;52595;51.608;7.216;2024-02-14T14:32:07;10.95;99.99
65836;SHT30;52595;51.608;7.216;2024-02-14T14:34:32;10.92;99.99
65836;SHT30;52595;51.608;7.216;2024-02-14T14:36:58;10.92;99.99
65836;SHT30;52595;51.608;7.216;2024-02-14T14:39:23;10.96;99.99
65836;SHT30;52595;51.608;7.216;2024-02-14T14:41:48;10.96;99.99
65836;SHT30;52595;51.608;7.216;2024-02-14T14:44:15;10.95;99.99
65836;SHT30;52595;51.608;7.216;2024-02-14T14:46:40;10.99;99.99
65836;SHT30;52595;51.608;7.216;2024-02-14T14:49:08;11.02;99.99
65836;SHT30;52595;51.608;7.216;2024-02-14T14:51:34;10.97;99.99
65836;SHT30;52595;51.608;7.216;2024-02-14T14:54:00;10.96;99.99
65836;SHT30;52595;51.608;7.216;2024-02-14T14:56:26;10.95;99.99
65836;SHT30;52595;51.608;7.216;2024-02-14T14:58:52;10.96;99.99
65836;SHT30;52595;51.608;7.216;2024-02-14T15:01:18;10.96;99.99
65836;SHT30;52595;51.608;7.216;2024-02-14T15:03:44;10.99;99.99
65836;SHT30;52595;51.608;7.216;2024-02-14T15:06:09;10.96;99.99
65836;SHT30;52595;51.608;7.216;2024-02-14T15:08:35;10.93;99.99
65836;SHT30;52595;51.608;7.216;2024-02-14T15:11:00;10.93;99.99
65836;SHT30;52595;51.608;7.216;2024-02-14T15:13:26;10.92;99.99
65836;SHT30;52595;51.608;7.216;2024-02-14T15:15:52;10.93;99.99
65836;SHT30;52595;51.608;7.216;2024-02-14T15:18:18;10.92;99.99
65836;SHT30;52595;51.608;7.216;2024-02-14T15:20:44;10.90;99.99
65836;SHT30;52595;51.608;7.216;2024-02-14T15:23:09;10.90;99.99
65836;SHT30;52595;51.608;7.216;2024-02-14T15:25:35;10.93;99.99
65836;SHT30;52595;51.608;7.216;2024-02-14T15:28:09;10.93;99.99
65836;SHT30;52595;51.608;7.216;2024-02-14T15:30:51;10.90;99.99
65836;SHT30;52595;51.608;7.216;2024-02-14T15:33:34;10.93;99.99
65836;SHT30;52595;51.608;7.216;2024-02-14T15:36:00;10.92;99.99